createdAt,value
2018-02-10T00:01:58.276Z,60.97
2018-02-10T00:04:26.194Z,60.78
2018-02-10T00:06:53.760Z,60.90
2018-02-10T00:09:21.332Z,60.87
2018-02-10T00:11:48.948Z,61.40
2018-02-10T00:14:16.582Z,61.15
2018-02-10T00:16:44.157Z,61.34
2018-02-10T00:19:11.895Z,61.44
2018-02-10T00:21:39.477Z,61.30
2018-02-10T00:24:07.080Z,60.95
2018-02-10T00:26:34.703Z,61.16
2018-02-10T00:29:02.298Z,61.06
2018-02-10T00:31:29.882Z,60.95
2018-02-10T00:33:57.542Z,61.19
2018-02-10T00:36:25.159Z,60.86
2018-02-10T00:38:52.749Z,61.25
2018-02-10T00:41:21.322Z,60.89
2018-02-10T00:43:48.948Z,61.17
2018-02-10T00:46:16.581Z,60.65
2018-02-10T00:48:44.219Z,60.84
2018-02-10T00:51:11.806Z,60.82
2018-02-10T00:53:39.391Z,61.09
2018-02-10T00:56:07.033Z,61.00
2018-02-10T00:58:34.684Z,61.30
2018-02-10T01:01:02.244Z,61.01
2018-02-10T01:03:29.870Z,61.58
2018-02-10T01:05:57.519Z,61.72
2018-02-10T01:08:25.092Z,61.33
2018-02-10T01:10:52.719Z,61.86
2018-02-10T01:13:20.283Z,61.93
2018-02-10T01:15:47.857Z,61.83
2018-02-10T01:18:15.760Z,62.04
2018-02-10T01:20:43.626Z,62.36
2018-02-10T01:23:11.291Z,62.56
2018-02-10T01:25:38.904Z,62.45
2018-02-10T01:28:06.504Z,62.46
2018-02-10T01:30:34.165Z,62.79
2018-02-10T01:33:01.824Z,63.00
2018-02-10T01:35:29.433Z,63.08
2018-02-10T01:37:57.012Z,63.38
2018-02-10T01:40:24.644Z,63.46
2018-02-10T01:42:52.204Z,63.66
2018-02-10T01:45:19.891Z,64.03
2018-02-10T01:47:47.613Z,64.05
2018-02-10T01:50:21.977Z,64.10
2018-02-10T01:52:49.606Z,64.46
2018-02-10T01:55:17.189Z,64.26
2018-02-10T01:57:44.826Z,64.40
2018-02-10T02:00:12.677Z,64.73
2018-02-10T02:02:40.315Z,64.96
2018-02-10T02:05:07.924Z,65.55
2018-02-10T02:07:35.532Z,65.32
2018-02-10T02:10:03.126Z,65.54
2018-02-10T02:12:30.764Z,65.86
2018-02-10T02:14:58.481Z,66.18
2018-02-10T02:17:26.075Z,66.46
2018-02-10T02:19:53.689Z,66.42
2018-02-10T02:22:21.427Z,66.79
2018-02-10T02:24:49.047Z,66.48
2018-02-10T02:27:16.610Z,66.36
2018-02-10T02:29:44.228Z,66.36
2018-02-10T02:32:11.833Z,66.28
2018-02-10T02:34:39.408Z,65.97
2018-02-10T02:37:07.568Z,65.78
2018-02-10T02:39:35.149Z,65.63
2018-02-10T02:42:02.754Z,65.75
2018-02-10T02:44:30.373Z,65.69
2018-02-10T02:46:57.959Z,65.68
2018-02-10T02:49:25.541Z,65.97
2018-02-10T02:51:53.165Z,65.94
2018-02-10T02:54:20.756Z,65.71
2018-02-10T02:56:48.346Z,65.87
2018-02-10T02:59:16.021Z,65.42
2018-02-10T03:01:43.618Z,65.70
2018-02-10T03:04:12.367Z,65.53
2018-02-10T03:06:40.299Z,65.27
2018-02-10T03:09:10.889Z,65.35
2018-02-10T03:11:38.510Z,65.58
2018-02-10T03:14:07.392Z,65.29
2018-02-10T03:16:35.009Z,64.88
2018-02-10T03:19:02.633Z,65.07
2018-02-10T03:21:30.311Z,64.54
2018-02-10T03:23:58.019Z,64.39
2018-02-10T03:26:25.628Z,64.21
2018-02-10T03:28:53.449Z,64.38
2018-02-10T03:31:21.088Z,64.34
2018-02-10T03:33:49.540Z,64.53
2018-02-10T03:36:17.168Z,64.16
2018-02-10T03:38:44.751Z,64.15
2018-02-10T03:41:14.437Z,64.17
2018-02-10T03:43:42.402Z,64.60
2018-02-10T03:46:10.004Z,64.39
2018-02-10T03:48:37.565Z,64.06
2018-02-10T03:51:05.213Z,64.07
2018-02-10T03:53:32.800Z,64.10
2018-02-10T03:56:00.370Z,64.32
2018-02-10T03:58:28.075Z,64.05
2018-02-10T04:00:55.679Z,64.21
2018-02-10T04:03:23.236Z,64.25
2018-02-10T04:05:50.873Z,64.47
2018-02-10T04:08:18.452Z,64.33
2018-02-10T04:10:46.062Z,64.43
2018-02-10T04:13:13.760Z,64.38
2018-02-10T04:15:41.836Z,64.61
2018-02-10T04:18:09.434Z,64.83
2018-02-10T04:20:37.282Z,64.53
2018-02-10T04:23:04.917Z,64.54
2018-02-10T04:25:33.062Z,64.94
2018-02-10T04:28:00.718Z,64.85
2018-02-10T04:30:28.292Z,64.49
2018-02-10T04:32:55.957Z,64.59
2018-02-10T04:35:23.604Z,64.81
2018-02-10T04:37:51.172Z,64.81
2018-02-10T04:40:18.749Z,64.60
2018-02-10T04:42:46.375Z,64.68
2018-02-10T04:45:13.945Z,64.88
2018-02-10T04:47:41.533Z,65.14
2018-02-10T04:50:09.261Z,65.48
2018-02-10T04:52:36.844Z,65.42
2018-02-10T04:55:04.421Z,65.77
2018-02-10T04:57:32.073Z,65.85
2018-02-10T04:59:59.663Z,65.86
2018-02-10T05:02:27.228Z,65.57
2018-02-10T05:04:55.202Z,65.65
2018-02-10T05:07:22.767Z,65.62
2018-02-10T05:09:50.344Z,65.74
2018-02-10T05:12:17.997Z,65.70
2018-02-10T05:14:45.629Z,65.54
2018-02-10T05:17:13.218Z,65.53
2018-02-10T05:19:40.852Z,66.06
2018-02-10T05:22:08.424Z,65.34
2018-02-10T05:24:36.041Z,65.36
2018-02-10T05:27:03.797Z,65.41
2018-02-10T05:29:31.376Z,64.99
2018-02-10T05:31:58.984Z,65.28
2018-02-10T05:34:26.591Z,65.20
2018-02-10T05:36:54.190Z,65.13
2018-02-10T05:39:21.816Z,65.35
2018-02-10T05:41:49.561Z,65.29
2018-02-10T05:44:17.173Z,65.11
2018-02-10T05:46:44.765Z,65.34
2018-02-10T05:49:12.681Z,65.31
2018-02-10T05:51:40.258Z,65.01
2018-02-10T05:54:07.824Z,65.16
2018-02-10T05:56:35.472Z,65.50
2018-02-10T05:59:03.070Z,65.51
2018-02-10T06:01:30.656Z,65.05
2018-02-10T06:03:58.294Z,65.54
2018-02-10T06:06:25.902Z,65.17
2018-02-10T06:08:53.475Z,64.50
2018-02-10T06:11:21.116Z,65.35
2018-02-10T06:13:48.693Z,64.79
2018-02-10T06:16:16.296Z,64.65
2018-02-10T06:18:44.160Z,64.45
2018-02-10T06:21:11.739Z,64.46
2018-02-10T06:23:39.317Z,64.57
2018-02-10T06:26:06.994Z,64.42
2018-02-10T06:28:34.673Z,64.76
2018-02-10T06:31:02.238Z,64.99
2018-02-10T06:33:30.110Z,64.93
2018-02-10T06:35:58.648Z,65.12
2018-02-10T06:38:26.199Z,65.28
2018-02-10T06:40:53.889Z,65.45
2018-02-10T06:43:21.479Z,65.37
2018-02-10T06:45:49.038Z,66.10
2018-02-10T06:48:16.783Z,65.46
2018-02-10T06:50:44.364Z,66.17
2018-02-10T06:53:11.954Z,65.98
2018-02-10T06:55:40.204Z,65.78
2018-02-10T06:58:07.774Z,66.27
2018-02-10T07:00:35.335Z,65.99
2018-02-10T07:03:02.999Z,65.88
2018-02-10T07:05:30.577Z,66.00
2018-02-10T07:07:58.164Z,65.86
2018-02-10T07:10:25.820Z,66.48
2018-02-10T07:12:53.421Z,66.37
2018-02-10T07:15:21.079Z,66.81
2018-02-10T07:17:48.780Z,66.99
2018-02-10T07:20:16.344Z,67.51
2018-02-10T07:22:43.985Z,67.44
2018-02-10T07:25:11.625Z,67.34
2018-02-10T07:27:39.222Z,67.21
2018-02-10T07:30:06.872Z,67.33
2018-02-10T07:32:34.505Z,68.10
2018-02-10T07:35:02.073Z,68.12
2018-02-10T07:37:29.637Z,68.94
2018-02-10T07:39:57.531Z,68.99
2018-02-10T07:42:25.095Z,69.11
2018-02-10T07:44:53.310Z,69.17
2018-02-10T07:47:21.027Z,68.81
2018-02-10T07:49:48.607Z,68.58
2018-02-10T07:52:16.215Z,68.20
2018-02-10T07:54:43.943Z,68.10
2018-02-10T07:57:12.473Z,68.27
2018-02-10T07:59:40.039Z,68.49
2018-02-10T08:02:07.684Z,68.02
2018-02-10T08:04:35.264Z,67.43
2018-02-10T08:07:02.836Z,67.87
2018-02-10T08:09:30.481Z,67.69
2018-02-10T08:11:58.044Z,67.67
2018-02-10T08:14:25.621Z,68.72
2018-02-10T08:16:53.240Z,67.47
2018-02-10T08:19:20.849Z,68.33
2018-02-10T08:21:48.436Z,68.62
2018-02-10T08:24:16.133Z,68.62
2018-02-10T08:26:43.705Z,68.67
2018-02-10T08:29:11.279Z,69.12
2018-02-10T08:31:38.920Z,68.48
2018-02-10T08:34:06.516Z,68.41
2018-02-10T08:36:34.138Z,67.79
2018-02-10T08:39:02.030Z,67.74
2018-02-10T08:41:29.692Z,67.06
2018-02-10T08:43:57.292Z,66.19
2018-02-10T08:46:24.941Z,66.58
2018-02-10T08:48:52.509Z,67.58
2018-02-10T08:51:20.154Z,68.30
2018-02-10T08:53:47.980Z,68.27
2018-02-10T08:56:15.568Z,69.54
2018-02-10T08:58:43.131Z,69.81
2018-02-10T09:01:11.705Z,69.70
2018-02-10T09:03:39.351Z,68.86
2018-02-10T09:06:06.925Z,68.03
2018-02-10T09:08:34.561Z,68.41
2018-02-10T09:11:02.185Z,68.90
2018-02-10T09:13:29.752Z,68.94
2018-02-10T09:15:57.408Z,67.79
2018-02-10T09:18:24.984Z,67.37
2018-02-10T09:20:52.572Z,67.33
2018-02-10T09:23:20.716Z,68.75
2018-02-10T09:25:48.295Z,68.85
2018-02-10T09:28:15.897Z,68.01
2018-02-10T09:30:44.076Z,67.90
2018-02-10T09:33:11.736Z,68.14
2018-02-10T09:35:39.361Z,68.03
2018-02-10T09:38:07.173Z,68.37
2018-02-10T09:40:34.784Z,68.33
2018-02-10T09:43:02.371Z,68.80
2018-02-10T09:45:30.566Z,69.63
2018-02-10T09:47:58.152Z,69.20
2018-02-10T09:50:25.721Z,69.32
2018-02-10T09:52:53.329Z,69.28
2018-02-10T09:55:20.905Z,69.74
2018-02-10T09:57:48.480Z,70.14
2018-02-10T10:00:16.126Z,70.49
2018-02-10T10:02:43.700Z,70.71
2018-02-10T10:05:11.290Z,71.28
2018-02-10T10:07:38.970Z,71.12
2018-02-10T10:10:06.637Z,71.60
2018-02-10T10:12:34.273Z,71.38
2018-02-10T10:15:01.902Z,71.42
2018-02-10T10:17:29.474Z,71.18
2018-02-10T10:19:57.049Z,69.61
2018-02-10T10:22:24.973Z,69.04
2018-02-10T10:24:52.577Z,66.64
2018-02-10T10:27:20.235Z,66.23
2018-02-10T10:29:47.897Z,65.04
2018-02-10T10:32:15.480Z,65.19
2018-02-10T10:34:43.069Z,65.87
2018-02-10T10:37:10.686Z,65.60
2018-02-10T10:39:38.285Z,64.83
2018-02-10T10:42:05.870Z,64.75
2018-02-10T10:44:33.500Z,64.41
2018-02-10T10:47:01.069Z,65.30
2018-02-10T10:49:28.653Z,63.91
2018-02-10T10:51:56.273Z,64.33
2018-02-10T10:54:23.847Z,64.18
2018-02-10T10:56:51.425Z,64.38
2018-02-10T10:59:19.086Z,65.08
2018-02-10T11:01:47.428Z,65.86
2018-02-10T11:04:15.023Z,66.18
2018-02-10T11:06:42.653Z,66.44
2018-02-10T11:09:10.291Z,66.95
2018-02-10T11:11:37.861Z,67.05
2018-02-10T11:14:05.480Z,67.28
2018-02-10T11:16:33.057Z,66.78
2018-02-10T11:19:00.692Z,66.82
2018-02-10T11:21:28.333Z,66.88
2018-02-10T11:23:55.900Z,66.18
2018-02-10T11:26:23.509Z,65.14
2018-02-10T11:28:51.234Z,64.60
2018-02-10T11:31:18.796Z,64.34
2018-02-10T11:33:46.377Z,64.28
2018-02-10T11:36:14.006Z,65.08
2018-02-10T11:38:41.653Z,65.38
2018-02-10T11:41:09.450Z,65.22
2018-02-10T11:43:37.284Z,65.76
2018-02-10T11:46:04.879Z,65.81
2018-02-10T11:48:32.507Z,65.55
2018-02-10T11:51:00.150Z,65.14
2018-02-10T11:53:27.742Z,65.71
2018-02-10T11:55:55.331Z,66.09
2018-02-10T11:58:22.969Z,66.96
2018-02-10T12:00:50.567Z,67.42
2018-02-10T12:03:18.146Z,67.16
2018-02-10T12:05:45.762Z,67.56
2018-02-10T12:08:13.333Z,67.82
2018-02-10T12:10:40.924Z,68.17
2018-02-10T12:13:09.245Z,67.90
2018-02-10T12:15:36.828Z,67.83
2018-02-10T12:18:04.474Z,66.87
2018-02-10T12:20:32.300Z,66.85
2018-02-10T12:22:59.870Z,67.10
2018-02-10T12:25:28.337Z,67.03
2018-02-10T12:27:55.976Z,67.26
2018-02-10T12:30:23.632Z,67.56
2018-02-10T12:32:51.266Z,67.34
2018-02-10T12:35:19.008Z,67.47
2018-02-10T12:37:46.567Z,67.26
2018-02-10T12:40:14.135Z,66.46
2018-02-10T12:42:41.770Z,66.06
2018-02-10T12:45:09.367Z,66.43
2018-02-10T12:47:54.711Z,67.10
2018-02-10T12:50:22.337Z,67.31
2018-02-10T12:52:50.701Z,67.80
2018-02-10T12:55:18.572Z,68.64
2018-02-10T12:57:46.238Z,68.62
2018-02-10T13:00:13.810Z,69.20
2018-02-10T13:02:41.496Z,69.36
2018-02-10T13:05:09.129Z,70.49
2018-02-10T13:07:36.837Z,70.74
2018-02-10T13:10:04.541Z,70.95
2018-02-10T13:12:32.201Z,70.85
2018-02-10T13:14:59.833Z,71.15
2018-02-10T13:17:27.527Z,70.80
2018-02-10T13:19:55.156Z,71.21
2018-02-10T13:22:22.744Z,71.27
2018-02-10T13:24:50.336Z,71.74
2018-02-10T13:27:17.944Z,72.17
2018-02-10T13:29:46.502Z,72.42
2018-02-10T13:32:14.453Z,72.39
2018-02-10T13:34:42.052Z,72.31
2018-02-10T13:37:09.697Z,72.59
2018-02-10T13:39:37.554Z,72.08
2018-02-10T13:42:05.161Z,72.79
2018-02-10T13:44:32.730Z,72.45
2018-02-10T13:47:00.376Z,72.47
2018-02-10T13:49:28.532Z,71.87
2018-02-10T13:51:56.169Z,72.24
2018-02-10T13:54:23.805Z,72.78
2018-02-10T13:56:51.609Z,73.50
2018-02-10T13:59:20.097Z,73.30
2018-02-10T14:01:47.783Z,74.50
2018-02-10T14:04:15.353Z,74.52
2018-02-10T14:06:42.919Z,75.03
2018-02-10T14:09:10.533Z,75.41
2018-02-10T14:11:38.396Z,75.56
2018-02-10T14:14:05.980Z,76.64
2018-02-10T14:16:33.694Z,77.88
2018-02-10T14:19:01.354Z,78.29
2018-02-10T14:21:28.929Z,78.57
2018-02-10T14:23:56.593Z,77.74
2018-02-10T14:26:24.160Z,77.49
2018-02-10T14:28:51.803Z,77.59
2018-02-10T14:31:19.433Z,78.29
2018-02-10T14:33:47.016Z,78.25
2018-02-10T14:36:14.604Z,78.41
2018-02-10T14:38:42.215Z,78.20
2018-02-10T14:41:09.907Z,77.90
2018-02-10T14:43:37.471Z,78.04
2018-02-10T14:46:05.117Z,77.98
2018-02-10T14:48:32.763Z,77.64
2018-02-10T14:51:00.329Z,78.31
2018-02-10T14:53:27.958Z,79.05
2018-02-10T14:55:55.526Z,78.63
2018-02-10T14:58:23.095Z,78.55
2018-02-10T15:00:50.765Z,79.12
2018-02-10T15:03:18.352Z,79.30
2018-02-10T15:05:45.915Z,79.40
2018-02-10T15:08:13.537Z,79.27
2018-02-10T15:10:41.133Z,79.25
2018-02-10T15:13:08.782Z,79.32
2018-02-10T15:15:36.461Z,79.40
2018-02-10T15:18:04.364Z,79.96
2018-02-10T15:20:31.996Z,80.16
2018-02-10T15:22:59.747Z,80.47
2018-02-10T15:25:27.362Z,80.51
2018-02-10T15:27:55.010Z,79.97
2018-02-10T15:30:34.653Z,79.86
2018-02-10T15:33:15.006Z,79.92
2018-02-10T15:35:42.616Z,80.18
2018-02-10T15:38:10.218Z,79.64
2018-02-10T15:40:38.427Z,80.40
2018-02-10T15:43:06.117Z,80.02
2018-02-10T15:45:33.697Z,79.99
2018-02-10T15:48:01.300Z,80.33
2018-02-10T15:50:29.237Z,80.40
2018-02-10T15:52:56.797Z,80.40
2018-02-10T15:55:24.391Z,80.73
2018-02-10T15:57:52.017Z,80.50
2018-02-10T16:00:19.605Z,80.26
2018-02-10T16:02:47.868Z,79.75
2018-02-10T16:05:15.537Z,80.70
2018-02-10T16:07:43.113Z,80.48
2018-02-10T16:10:10.697Z,80.91
2018-02-10T16:12:39.148Z,80.56
2018-02-10T16:15:06.721Z,80.18
2018-02-10T16:17:34.299Z,80.10
2018-02-10T16:20:01.937Z,80.83
2018-02-10T16:22:29.512Z,80.80
2018-02-10T16:24:57.086Z,81.50
2018-02-10T16:27:24.734Z,81.27
2018-02-10T16:29:52.325Z,81.37
2018-02-10T16:32:19.892Z,81.40
2018-02-10T16:34:48.424Z,81.71
2018-02-10T16:37:16.022Z,81.71
2018-02-10T16:39:43.691Z,81.42
2018-02-10T16:42:11.388Z,81.48
2018-02-10T16:44:39.304Z,81.43
2018-02-10T16:47:06.881Z,81.27
2018-02-10T16:49:34.662Z,81.92
2018-02-10T16:52:02.310Z,81.68
2018-02-10T16:54:29.877Z,81.95
2018-02-10T16:56:57.582Z,82.34
2018-02-10T16:59:25.927Z,81.65
2018-02-10T17:01:53.496Z,82.37
2018-02-10T17:04:21.238Z,82.49
2018-02-10T17:06:48.854Z,82.62
2018-02-10T17:09:16.493Z,82.48
2018-02-10T17:11:44.385Z,82.01
2018-02-10T17:14:11.972Z,82.01
2018-02-10T17:16:39.601Z,82.46
2018-02-10T17:19:07.222Z,82.62
2018-02-10T17:21:34.817Z,83.08
2018-02-10T17:24:02.455Z,82.73
2018-02-10T17:26:30.096Z,82.84
2018-02-10T17:28:57.705Z,82.98
2018-02-10T17:31:25.263Z,82.65
2018-02-10T17:33:53.013Z,83.05
2018-02-10T17:36:20.605Z,82.77
2018-02-10T17:38:49.647Z,82.74
2018-02-10T17:41:17.273Z,82.87
2018-02-10T17:43:44.853Z,82.83
2018-02-10T17:46:13.911Z,82.78
2018-02-10T17:48:42.794Z,82.54
2018-02-10T17:51:12.026Z,82.45
2018-02-10T17:53:41.149Z,82.33
2018-02-10T17:56:08.810Z,82.52
2018-02-10T17:58:38.787Z,82.49
2018-02-10T18:01:07.643Z,82.71
2018-02-10T18:03:35.433Z,82.66
2018-02-10T18:06:03.083Z,82.45
2018-02-10T18:08:30.661Z,82.67
2018-02-10T18:10:59.712Z,82.83
2018-02-10T18:13:27.337Z,82.52
2018-02-10T18:15:54.908Z,82.81
2018-02-10T18:18:22.551Z,82.91
2018-02-10T18:20:50.109Z,82.80
2018-02-10T18:23:17.750Z,82.76
2018-02-10T18:25:45.511Z,82.76
2018-02-10T18:28:13.119Z,82.77
2018-02-10T18:30:40.744Z,82.47
2018-02-10T18:33:10.082Z,82.59
2018-02-10T18:35:37.648Z,82.32
2018-02-10T18:38:05.241Z,82.51
2018-02-10T18:40:32.849Z,82.19
2018-02-10T18:43:00.412Z,82.34
2018-02-10T18:45:27.972Z,82.45
2018-02-10T18:47:55.730Z,82.36
2018-02-10T18:50:23.539Z,82.51
2018-02-10T18:52:51.254Z,82.18
2018-02-10T18:55:18.873Z,82.28
2018-02-10T18:57:46.497Z,82.02
2018-02-10T19:00:14.133Z,81.96
2018-02-10T19:02:41.736Z,81.94
2018-02-10T19:05:09.402Z,81.55
2018-02-10T19:07:37.046Z,81.47
2018-02-10T19:10:04.654Z,81.75
2018-02-10T19:12:32.254Z,81.40
2018-02-10T19:14:59.850Z,81.07
2018-02-10T19:17:27.684Z,80.33
2018-02-10T19:19:56.092Z,79.60
2018-02-10T19:22:23.664Z,79.52
2018-02-10T19:24:51.283Z,78.25
2018-02-10T19:27:18.875Z,78.56
2018-02-10T19:29:46.507Z,77.42
2018-02-10T19:32:14.156Z,77.43
2018-02-10T19:34:42.346Z,77.08
2018-02-10T19:37:09.924Z,77.37
2018-02-10T19:39:38.247Z,77.57
2018-02-10T19:42:05.829Z,77.40
2018-02-10T19:44:33.408Z,77.09
2018-02-10T19:47:01.107Z,76.80
2018-02-10T19:49:28.887Z,76.82
2018-02-10T19:51:56.477Z,75.88
2018-02-10T19:54:24.108Z,76.30
2018-02-10T19:56:51.674Z,76.76
2018-02-10T19:59:19.264Z,77.33
2018-02-10T20:01:46.910Z,76.87
2018-02-10T20:04:14.496Z,76.99
2018-02-10T20:06:42.234Z,77.35
2018-02-10T20:09:10.802Z,76.54
2018-02-10T20:11:38.381Z,76.01
2018-02-10T20:14:05.975Z,76.83
2018-02-10T20:16:33.600Z,76.71
2018-02-10T20:19:01.156Z,76.47
2018-02-10T20:21:28.734Z,77.21
2018-02-10T20:23:56.413Z,77.46
2018-02-10T20:26:23.979Z,77.16
2018-02-10T20:28:51.535Z,77.88
2018-02-10T20:31:19.147Z,77.83
2018-02-10T20:33:46.711Z,77.53
2018-02-10T20:36:14.304Z,77.72
2018-02-10T20:38:41.922Z,77.84
2018-02-10T20:41:09.511Z,77.82
2018-02-10T20:43:37.082Z,77.68
2018-02-10T20:46:04.724Z,77.90
2018-02-10T20:48:32.642Z,78.60
2018-02-10T20:51:01.032Z,79.30
2018-02-10T20:53:28.661Z,78.93
2018-02-10T20:55:56.255Z,79.66
2018-02-10T20:58:23.843Z,80.07
2018-02-10T21:00:54.865Z,79.77
2018-02-10T21:03:22.444Z,80.64
2018-02-10T21:05:50.012Z,81.18
2018-02-10T21:08:17.626Z,80.99
2018-02-10T21:10:45.199Z,81.48
2018-02-10T21:13:12.763Z,80.47
2018-02-10T21:15:40.680Z,80.94
2018-02-10T21:18:08.275Z,81.42
2018-02-10T21:20:35.853Z,81.30
2018-02-10T21:23:03.501Z,81.05
2018-02-10T21:25:31.057Z,80.64
2018-02-10T21:27:58.694Z,80.58
2018-02-10T21:30:26.312Z,80.36
2018-02-10T21:32:53.948Z,80.86
2018-02-10T21:35:21.510Z,80.70
2018-02-10T21:37:49.232Z,81.32
2018-02-10T21:40:16.820Z,80.93
2018-02-10T21:42:44.388Z,81.71
2018-02-10T21:45:11.992Z,80.93
2018-02-10T21:47:39.586Z,80.87
2018-02-10T21:50:07.216Z,80.75
2018-02-10T21:52:35.296Z,81.53
2018-02-10T21:55:02.872Z,82.05
2018-02-10T21:57:31.231Z,81.64
2018-02-10T21:59:58.918Z,81.04
2018-02-10T22:02:26.480Z,81.04
2018-02-10T22:04:54.035Z,81.74
2018-02-10T22:07:21.705Z,80.98
2018-02-10T22:09:49.340Z,81.30
2018-02-10T22:12:16.931Z,81.25
2018-02-10T22:14:44.602Z,81.82
2018-02-10T22:17:12.205Z,81.91
2018-02-10T22:19:39.802Z,81.66
2018-02-10T22:22:07.420Z,82.21
2018-02-10T22:24:35.204Z,81.33
2018-02-10T22:27:02.804Z,81.47
2018-02-10T22:29:30.456Z,81.62
2018-02-10T22:31:58.021Z,81.93
2018-02-10T22:34:25.615Z,82.30
2018-02-10T22:36:53.270Z,82.19
2018-02-10T22:39:20.847Z,81.70
2018-02-10T22:41:48.414Z,81.25
2018-02-10T22:44:16.026Z,80.31
2018-02-10T22:46:43.596Z,80.33
2018-02-10T22:49:11.231Z,79.21
2018-02-10T22:51:38.853Z,80.30
2018-02-10T22:54:07.125Z,79.85
2018-02-10T22:56:34.681Z,79.85
2018-02-10T22:59:02.289Z,79.64
2018-02-10T23:01:29.867Z,79.71
2018-02-10T23:03:57.496Z,78.99
2018-02-10T23:06:26.610Z,79.21
2018-02-10T23:08:54.164Z,79.05
2018-02-10T23:11:21.740Z,78.66
2018-02-10T23:13:49.369Z,78.38
2018-02-10T23:16:16.922Z,78.50
2018-02-10T23:18:44.479Z,78.74
2018-02-10T23:21:12.321Z,78.63
2018-02-10T23:23:39.876Z,78.55
2018-02-10T23:26:07.470Z,78.40
2018-02-10T23:28:35.091Z,78.15
2018-02-10T23:31:02.696Z,78.64
2018-02-10T23:33:30.373Z,78.41
2018-02-10T23:35:58.070Z,77.90
2018-02-10T23:38:25.648Z,78.06
2018-02-10T23:40:53.212Z,78.38
2018-02-10T23:43:20.948Z,78.54
2018-02-10T23:45:48.507Z,78.27
2018-02-10T23:48:16.063Z,78.94
2018-02-10T23:50:43.695Z,78.79
2018-02-10T23:53:11.252Z,79.13
2018-02-10T23:55:38.887Z,79.35
2018-02-10T23:58:06.857Z,78.67
